Briggs, TX (78608)

10:15 AM CDT on March 26, 2017 (GMT -0500)
FaultLineFlyers Gliderport | | Change Station

Elev 1148 ft 30.86 °N, 97.95 °W | Updated 5 minutes ago

Mostly Cloudy
Mostly Cloudy
69.2 °F
Feels Like 69.2 °F
N
16.0
Wind Variable Wind from SSE
Gusts 21.0 mph

Today
High -- | Low -- °F
--% Chance of Precip.
Yesterday
High -- | Low -- °F
Precip. -- in
Pressure 29.84 in
Visibility 10.0 miles
Clouds Mostly Cloudy 1100 ft
Dew Point 63 °F
Humidity 81%
Rainfall 0.00 in
Snow Depth Not available.
7:27 AM 7:47 PM
Waning Crescent, 3% visible
SPECI KGRK 261503Z AUTO 15018KT 10SM BKN011 21/17 A2986 RMK AO2 SLP105
Pressure 29.84 in
Visibility 10.0 miles
Clouds Mostly Cloudy 1100 ft
Dew Point 63 °F
Humidity 81%
Rainfall 0.00 in
Snow Depth Not available.
7:27 AM 7:47 PM
Waning Crescent, 3% visible
SPECI KGRK 261503Z AUTO 15018KT 10SM BKN011 21/17 A2986 RMK AO2 SLP105

Get Severe Weather Alerts

Thanks for signing up!

Be on the lookout for a verification email in your inbox.

You'll start receiving the daily forecast at 8 AM.

×

10-Day Weather Forecast

Almanac

Astronomy

Mar. 26, 2017 Rise Set
Actual Time
Civil Twilight
Nautical Twilight
Astronomical Twilight
Moon
Length of Visible Light
Length of Day
Tomorrow will be .
, % of the Moon is Illuminated

Today's Extremes

State Highs State Lows

Community

WunderPhotos

Upload Photos

1,962,540 photos uploaded!

WunderBlog® & News

Nearby

Air Quality

  Air Quality AQ Index Pollutant
Not available.

Snow Depth

Station Depth Elevation

Earthquake Activity

City Distance Mag. Time & Date
Minimum magnitude displayed is 2.5.

Earthquake Activity

City Distance Mag. Time & Date
Minimum magnitude displayed is 2.5.

Coastal Water Temperatures

Place Temperature

Stations

Nearby Weather Stations

Station Location Temp. Windchill Dew Point Humidity Wind Precip. Elev Updated Type
                   

Watches & Warnings

There are currently no watches in effect.